Exeter Township, Pennsylvania
Current Conditions -  °F | °C
As of 8:17 AM on Thursday 18 Dec 2014 (Local Time) from KAVP Reporting Station
Overcast Overcast  
Wind Chill: 22°   Ceiling: 2900
Heat Index: 33°   Visibility: 10mi
Dew Point: 22°   Wind: 18mph
Humidity: 64%   Direction: 310°NW
Pressure: 30.01"   Gusts: 30mph
Location:  41.3688°N, 75.837°W
Report Text: KAVP 181317Z 31016G26KT 10SM OVC029 01/M06 A3001 RMK AO2 PK WND 31026/1309 T00061056
Loading
Personal Weather Stations






























Interactive Weather Map New forecast layout! Learn more

10-Day Weather Forecast

Advertisements
Track Severe Weather on mobile